Time;durP1;ratioP1;P1;durP2;ratioP2;P2;SDS_P1;SDS_P2;PMS_P1;PMS_P2;Temp;Humidity;BMP_temperature;BMP_pressure;BME280_temperature;BME280_humidity;BME280_pressure;Samples;Min_cycle;Max_cycle;Signal;HPM_P1;HPM_P2
2022/11/26 00:00:02;;;;;;;28.23;8.88;;;7.60;1.00;;;;;;4973288;28;20629;-84
2022/11/26 00:02:33;;;;;;;20.50;8.73;;;7.60;1.00;;;;;;4960202;28;20191;-84
2022/11/26 00:05:05;;;;;;;25.45;11.02;;;7.60;1.00;;;;;;4964245;28;20213;-85
2022/11/26 00:07:36;;;;;;;24.42;9.63;;;7.50;1.00;;;;;;4973476;28;20204;-84
2022/11/26 00:10:06;;;;;;;23.75;9.32;;;7.50;1.00;;;;;;4975001;28;20247;-85
2022/11/26 00:12:36;;;;;;;26.63;12.02;;;7.50;1.00;;;;;;4966956;28;20211;-85
2022/11/26 00:15:40;;;;;;;24.20;11.75;;;7.50;1.00;;;;;;4969847;28;20837;-85
2022/11/26 00:18:26;;;;;;;21.63;9.90;;;7.50;1.00;;;;;;4974508;28;20205;-84
2022/11/26 00:21:11;;;;;;;25.55;10.13;;;7.50;1.00;;;;;;4972410;28;20192;-84
2022/11/26 00:23:39;;;;;;;20.30;12.05;;;7.50;1.00;;;;;;4972985;28;20676;-84
2022/11/26 00:26:20;;;;;;;27.13;11.00;;;7.50;1.00;;;;;;4972695;28;20224;-83
2022/11/26 00:28:58;;;;;;;20.70;10.27;;;7.50;1.00;;;;;;4968475;28;20292;-84
2022/11/26 00:31:30;;;;;;;28.33;11.18;;;7.50;1.00;;;;;;4975068;28;20176;-84
2022/11/26 00:33:59;;;;;;;25.48;11.27;;;7.50;1.00;;;;;;4969085;28;20180;-84
2022/11/26 00:36:31;;;;;;;29.08;12.05;;;7.60;1.00;;;;;;4972160;28;20283;-83
2022/11/26 00:39:26;;;;;;;25.38;11.57;;;7.60;1.00;;;;;;4975721;28;20679;-84
2022/11/26 00:42:01;;;;;;;35.15;11.30;;;7.60;1.00;;;;;;4972905;28;20271;-84
2022/11/26 00:44:31;;;;;;;24.52;10.98;;;7.60;1.00;;;;;;4975225;28;20203;-84
2022/11/26 00:46:57;;;;;;;21.73;11.52;;;7.60;1.00;;;;;;4980095;28;20658;-85
2022/11/26 00:49:27;;;;;;;28.03;11.33;;;7.60;1.00;;;;;;4980498;28;20177;-85
2022/11/26 00:51:53;;;;;;;17.48;10.50;;;7.60;1.00;;;;;;4978681;28;20196;-85
2022/11/26 00:54:25;;;;;;;24.60;11.13;;;7.70;1.00;;;;;;4975727;28;20203;-85
2022/11/26 00:56:56;;;;;;;31.98;10.70;;;7.70;1.00;;;;;;4978499;28;20184;-85
2022/11/26 00:59:35;;;;;;;20.50;10.55;;;7.70;1.00;;;;;;4977479;28;20192;-85
2022/11/26 01:02:06;;;;;;;29.48;12.00;;;7.70;1.00;;;;;;4978261;28;20216;-85
2022/11/26 01:04:37;;;;;;;23.38;10.48;;;7.70;1.00;;;;;;4973372;28;20366;-85
2022/11/26 01:07:06;;;;;;;24.30;10.52;;;7.80;1.00;;;;;;4977074;28;20200;-84
2022/11/26 01:09:37;;;;;;;20.35;9.75;;;7.80;1.00;;;;;;4974164;28;20180;-85
2022/11/26 01:12:05;;;;;;;27.17;9.73;;;7.70;1.00;;;;;;4977463;28;20267;-84
2022/11/26 01:14:31;;;;;;;23.60;10.70;;;7.70;1.00;;;;;;4977281;28;20199;-85
2022/11/26 01:16:57;;;;;;;29.40;10.53;;;7.70;1.00;;;;;;4972690;28;20200;-85
2022/11/26 01:19:22;;;;;;;33.87;10.20;;;7.70;1.00;;;;;;4976693;28;20216;-85
2022/11/26 01:21:59;;;;;;;28.97;10.70;;;7.60;1.00;;;;;;4970741;28;20452;-84
2022/11/26 01:24:30;;;;;;;30.58;10.25;;;7.60;1.00;;;;;;4975051;28;20207;-82
2022/11/26 01:27:04;;;;;;;27.20;10.40;;;7.60;1.00;;;;;;4969998;28;20219;-84
2022/11/26 01:29:36;;;;;;;27.40;10.45;;;7.50;1.00;;;;;;4976510;28;20699;-85
2022/11/26 01:32:05;;;;;;;39.80;11.40;;;7.50;1.00;;;;;;4978476;28;20191;-84
2022/11/26 01:34:36;;;;;;;18.45;10.80;;;7.50;1.00;;;;;;4964997;28;20213;-86
2022/11/26 01:37:02;;;;;;;25.23;9.32;;;7.40;1.00;;;;;;4978944;28;20800;-85
2022/11/26 01:39:32;;;;;;;36.07;10.80;;;7.40;1.00;;;;;;4978875;28;20231;-84
2022/11/26 01:42:15;;;;;;;31.42;10.38;;;7.40;1.00;;;;;;4973827;28;20192;-85
2022/11/26 01:44:45;;;;;;;27.33;10.15;;;7.40;1.00;;;;;;4977784;28;20637;-85
2022/11/26 01:47:37;;;;;;;22.98;10.10;;;7.30;1.00;;;;;;4977760;28;20654;-86
2022/11/26 01:50:38;;;;;;;33.00;9.38;;;7.40;1.00;;;;;;4979541;28;20244;-85
2022/11/26 01:53:13;;;;;;;28.20;10.05;;;7.30;1.00;;;;;;4977935;28;20186;-85
2022/11/26 01:55:48;;;;;;;23.20;9.45;;;7.30;1.00;;;;;;4978085;28;20203;-85
2022/11/26 01:58:21;;;;;;;20.98;9.25;;;7.30;1.00;;;;;;4975079;28;20200;-85
2022/11/26 02:00:49;;;;;;;20.88;10.57;;;7.20;1.00;;;;;;4975962;28;20717;-86
2022/11/26 02:03:16;;;;;;;30.95;10.88;;;7.20;1.00;;;;;;4965267;28;20189;-86
2022/11/26 02:05:53;;;;;;;26.33;11.75;;;7.20;1.00;;;;;;4965653;28;20212;-85
2022/11/26 02:08:36;;;;;;;24.17;9.80;;;7.20;1.00;;;;;;4978189;28;20658;-86
2022/11/26 02:11:29;;;;;;;22.73;10.15;;;7.20;1.00;;;;;;4977189;28;20196;-85
2022/11/26 02:14:11;;;;;;;31.52;10.45;;;7.10;1.00;;;;;;4969891;28;20180;-85
2022/11/26 02:16:59;;;;;;;36.60;11.00;;;7.20;1.00;;;;;;4981623;28;20203;-85
2022/11/26 02:19:44;;;;;;;28.23;10.23;;;7.10;1.00;;;;;;4975822;28;20199;-86
2022/11/26 02:22:47;;;;;;;32.13;9.65;;;7.10;1.00;;;;;;4970443;28;20185;-85
2022/11/26 02:25:53;;;;;;;26.00;9.55;;;7.10;1.00;;;;;;4981228;28;20232;-85
2022/11/26 02:28:51;;;;;;;22.52;8.20;;;7.10;1.00;;;;;;4980042;28;20685;-84
2022/11/26 02:31:42;;;;;;;23.48;9.95;;;7.10;1.00;;;;;;4977724;28;20619;-85
2022/11/26 02:34:46;;;;;;;30.63;9.02;;;7.10;1.00;;;;;;5001212;28;20188;-85
2022/11/26 02:37:19;;;;;;;28.63;9.93;;;7.00;1.00;;;;;;4990602;28;20194;-84
2022/11/26 02:39:45;;;;;;;25.40;9.38;;;7.00;1.00;;;;;;4956960;29;20264;-84
2022/11/26 02:42:23;;;;;;;27.58;9.98;;;7.00;1.00;;;;;;4957417;29;20186;-84
2022/11/26 02:44:53;;;;;;;30.85;10.98;;;7.00;1.00;;;;;;4957242;28;20271;-84
2022/11/26 02:47:23;;;;;;;33.45;10.95;;;6.90;1.00;;;;;;4958219;28;20173;-84
2022/11/26 02:49:53;;;;;;;21.17;10.82;;;6.90;1.00;;;;;;4961438;28;20215;-85
2022/11/26 02:52:20;;;;;;;29.40;12.02;;;6.90;1.00;;;;;;4971020;28;20177;-84
2022/11/26 02:54:51;;;;;;;29.75;11.95;;;6.90;1.00;;;;;;4956159;28;20208;-85
2022/11/26 02:57:25;;;;;;;26.67;12.05;;;6.90;1.00;;;;;;4956380;29;20292;-84
2022/11/26 02:59:53;;;;;;;34.20;13.23;;;6.90;1.00;;;;;;4956795;29;20187;-84
2022/11/26 03:02:46;;;;;;;28.58;13.18;;;6.90;1.00;;;;;;4960749;28;20184;-84
2022/11/26 03:05:16;;;;;;;31.02;12.20;;;6.80;1.00;;;;;;4975636;28;20286;-84
2022/11/26 03:07:56;;;;;;;43.40;13.32;;;6.90;1.00;;;;;;4972588;28;20259;-84
2022/11/26 03:10:48;;;;;;;32.45;13.30;;;6.80;1.00;;;;;;4975851;28;20180;-84
2022/11/26 03:13:14;;;;;;;26.25;11.88;;;6.80;1.00;;;;;;4949540;28;20192;-84
2022/11/26 03:15:49;;;;;;;41.60;13.97;;;6.80;1.00;;;;;;4980810;28;20219;-84
2022/11/26 03:18:17;;;;;;;27.10;13.77;;;6.80;1.00;;;;;;4971579;28;20446;-85
2022/11/26 03:20:43;;;;;;;38.63;13.65;;;6.80;1.00;;;;;;4973202;28;20696;-84
2022/11/26 03:23:09;;;;;;;34.57;13.87;;;6.70;1.00;;;;;;4965117;28;20192;-84
2022/11/26 03:25:34;;;;;;;37.87;13.23;;;6.70;1.00;;;;;;4976179;28;20534;-83
2022/11/26 03:28:01;;;;;;;24.77;13.03;;;6.70;1.00;;;;;;4965143;28;20193;-84
2022/11/26 03:30:27;;;;;;;34.67;14.15;;;6.60;1.00;;;;;;4973246;28;20431;-85
2022/11/26 03:32:52;;;;;;;25.43;12.07;;;6.60;1.00;;;;;;4975049;28;20203;-85
2022/11/26 03:35:18;;;;;;;26.20;11.40;;;6.60;1.00;;;;;;4975240;28;20478;-84
2022/11/26 03:37:43;;;;;;;29.73;12.40;;;6.60;1.00;;;;;;4974711;28;20183;-84
2022/11/26 03:40:09;;;;;;;25.07;14.30;;;6.60;1.00;;;;;;4973291;28;20180;-84
2022/11/26 03:42:35;;;;;;;33.53;14.33;;;6.60;1.00;;;;;;4975147;28;20180;-84
2022/11/26 03:45:01;;;;;;;35.88;13.95;;;6.60;1.00;;;;;;4975527;28;20291;-84
2022/11/26 03:47:27;;;;;;;26.70;12.07;;;6.50;1.00;;;;;;4975849;28;20211;-85
2022/11/26 03:49:52;;;;;;;37.33;13.10;;;6.50;1.00;;;;;;4975069;28;20802;-84
2022/11/26 03:52:18;;;;;;;26.47;10.53;;;6.50;1.00;;;;;;4975135;28;20510;-85
2022/11/26 03:54:44;;;;;;;23.80;11.60;;;6.50;1.00;;;;;;4973279;28;20208;-84
2022/11/26 03:57:09;;;;;;;23.93;11.27;;;6.50;1.00;;;;;;4971599;28;20840;-84
2022/11/26 03:59:35;;;;;;;23.07;10.93;;;6.50;1.00;;;;;;4987203;28;20184;-84
2022/11/26 04:02:01;;;;;;;28.40;12.27;;;6.40;1.00;;;;;;4975063;28;20562;-84
2022/11/26 04:04:26;;;;;;;22.83;10.87;;;6.40;1.00;;;;;;4972064;28;20203;-84
2022/11/26 04:06:52;;;;;;;22.90;9.50;;;6.40;1.00;;;;;;4974619;28;20563;-85
2022/11/26 04:09:18;;;;;;;25.50;11.63;;;6.40;1.00;;;;;;4975242;28;20173;-82
2022/11/26 04:11:43;;;;;;;27.10;11.37;;;6.40;1.00;;;;;;4973132;28;20583;-84
2022/11/26 04:14:08;;;;;;;27.37;11.83;;;6.40;1.00;;;;;;4974165;28;20184;-83
2022/11/26 04:16:34;;;;;;;33.87;13.00;;;6.40;1.00;;;;;;4969883;28;20208;-85
2022/11/26 04:19:00;;;;;;;25.73;11.37;;;6.40;1.00;;;;;;4977621;28;20176;-83
2022/11/26 04:21:25;;;;;;;22.27;11.50;;;6.40;1.00;;;;;;4977603;28;20235;-85
2022/11/26 04:23:51;;;;;;;23.57;11.17;;;6.30;1.00;;;;;;4975309;28;20212;-85
2022/11/26 04:26:16;;;;;;;33.23;14.00;;;6.30;1.00;;;;;;4979845;28;20216;-86
2022/11/26 04:28:43;;;;;;;28.40;12.47;;;6.30;1.00;;;;;;4972647;28;20177;-86
2022/11/26 04:31:08;;;;;;;24.83;12.27;;;6.30;1.00;;;;;;4978701;28;20211;-86
2022/11/26 04:33:34;;;;;;;34.37;14.70;;;6.30;1.00;;;;;;4973674;28;20188;-85
2022/11/26 04:35:59;;;;;;;29.97;14.20;;;6.30;1.00;;;;;;4977931;28;20212;-86
2022/11/26 04:38:25;;;;;;;27.10;12.13;;;6.30;1.00;;;;;;4978967;28;20268;-85
2022/11/26 04:40:50;;;;;;;29.53;12.37;;;6.30;1.00;;;;;;4980062;28;20215;-85
2022/11/26 04:43:16;;;;;;;25.73;12.20;;;6.40;1.00;;;;;;4980487;28;20204;-84
2022/11/26 04:45:41;;;;;;;27.47;11.70;;;6.40;1.00;;;;;;4979884;28;20211;-85
2022/11/26 04:48:07;;;;;;;23.87;12.67;;;6.30;1.00;;;;;;4973328;28;20263;-86
2022/11/26 04:50:32;;;;;;;33.30;12.60;;;6.40;1.00;;;;;;4979906;28;20168;-85
2022/11/26 04:52:58;;;;;;;30.03;13.10;;;6.30;1.00;;;;;;4974004;28;20181;-86
2022/11/26 04:55:24;;;;;;;27.77;13.60;;;6.30;1.00;;;;;;4960352;29;20197;-86
2022/11/26 04:57:49;;;;;;;33.40;13.13;;;6.30;1.00;;;;;;4961377;29;20192;-85
2022/11/26 05:00:16;;;;;;;25.77;11.47;;;6.30;1.00;;;;;;4960580;29;20177;-85
2022/11/26 05:02:42;;;;;;;26.30;13.18;;;6.30;1.00;;;;;;4966181;28;20188;-85
2022/11/26 05:05:08;;;;;;;39.07;12.30;;;6.30;1.00;;;;;;4972137;28;20214;-86
2022/11/26 05:07:34;;;;;;;29.85;12.65;;;6.30;1.00;;;;;;4979679;28;20184;-85
2022/11/26 05:10:00;;;;;;;37.27;14.47;;;6.30;1.00;;;;;;4978497;28;20184;-85
2022/11/26 05:12:25;;;;;;;24.27;12.70;;;6.30;1.00;;;;;;4979088;28;20856;-86
2022/11/26 05:14:51;;;;;;;28.10;15.27;;;6.30;1.00;;;;;;4969538;28;20552;-85
2022/11/26 05:17:17;;;;;;;31.70;15.27;;;6.20;1.00;;;;;;4979305;28;20197;-85
2022/11/26 05:19:42;;;;;;;38.30;17.60;;;6.20;1.00;;;;;;4978825;28;20460;-86
2022/11/26 05:22:08;;;;;;;31.60;14.43;;;6.20;1.00;;;;;;4975384;28;20440;-84
2022/11/26 05:24:34;;;;;;;28.60;13.90;;;6.20;1.00;;;;;;4977477;28;20211;-86
2022/11/26 05:26:59;;;;;;;27.47;14.20;;;6.20;1.00;;;;;;4976594;28;20232;-85
2022/11/26 05:29:25;;;;;;;26.37;14.67;;;6.10;1.00;;;;;;4973967;28;20208;-85
2022/11/26 05:31:50;;;;;;;37.33;14.23;;;6.10;1.00;;;;;;4978310;28;20180;-85
2022/11/26 05:34:16;;;;;;;30.63;14.07;;;6.00;1.00;;;;;;4977375;28;20196;-85
2022/11/26 05:36:42;;;;;;;21.07;12.47;;;6.00;1.00;;;;;;4977492;28;20192;-86
2022/11/26 05:39:07;;;;;;;29.60;13.47;;;6.00;1.00;;;;;;4975201;28;20440;-84
2022/11/26 05:41:33;;;;;;;26.53;12.50;;;6.00;1.00;;;;;;4978595;28;20180;-86
2022/11/26 05:43:59;;;;;;;22.93;12.83;;;5.90;1.00;;;;;;4978974;28;20556;-85
2022/11/26 05:46:25;;;;;;;28.57;13.33;;;5.90;1.00;;;;;;4978473;28;20239;-85
2022/11/26 05:48:51;;;;;;;28.95;14.18;;;5.90;1.00;;;;;;4982857;28;20184;-85
2022/11/26 05:51:16;;;;;;;31.77;14.83;;;5.90;1.00;;;;;;4979554;28;20884;-85
2022/11/26 05:53:42;;;;;;;26.20;14.07;;;5.90;1.00;;;;;;4981621;28;20191;-85
2022/11/26 05:56:07;;;;;;;33.30;13.80;;;5.90;1.00;;;;;;4982666;28;20211;-84
2022/11/26 05:58:33;;;;;;;25.73;13.63;;;5.80;1.00;;;;;;4981064;28;20184;-86
2022/11/26 06:00:58;;;;;;;28.77;13.57;;;5.80;1.00;;;;;;4981136;28;20215;-86
2022/11/26 06:03:25;;;;;;;24.53;13.63;;;5.80;1.00;;;;;;4981466;28;20728;-86
2022/11/26 06:05:51;;;;;;;25.13;13.07;;;5.80;1.00;;;;;;4981332;28;20286;-85
2022/11/26 06:08:16;;;;;;;40.13;21.20;;;5.80;1.00;;;;;;4972445;28;20286;-86
2022/11/26 06:10:42;;;;;;;31.73;14.53;;;5.80;1.00;;;;;;4984160;28;20192;-85
2022/11/26 06:13:08;;;;;;;43.25;21.92;;;5.80;1.00;;;;;;4992312;28;20184;-85
2022/11/26 06:15:33;;;;;;;50.83;29.87;;;5.80;1.00;;;;;;4996557;28;20251;-85
2022/11/26 06:17:59;;;;;;;43.70;24.20;;;5.80;1.00;;;;;;4977354;28;20191;-83
2022/11/26 06:20:24;;;;;;;33.93;18.10;;;5.70;1.00;;;;;;4976237;28;20183;-84
2022/11/26 06:22:50;;;;;;;32.57;17.10;;;5.70;1.00;;;;;;4976632;28;20193;-84
2022/11/26 06:25:16;;;;;;;33.20;17.47;;;5.70;1.00;;;;;;4976386;28;20216;-85
2022/11/26 06:27:42;;;;;;;35.63;17.65;;;5.70;1.00;;;;;;4976395;28;20203;-84
2022/11/26 06:30:10;;;;;;;26.40;14.20;;;5.60;1.00;;;;;;4971892;28;20185;-84
2022/11/26 06:32:35;;;;;;;28.58;14.98;;;5.60;1.00;;;;;;4976074;28;20204;-85
2022/11/26 06:35:01;;;;;;;34.90;13.90;;;5.60;1.00;;;;;;4976660;28;20315;-84
2022/11/26 06:37:26;;;;;;;30.30;12.53;;;5.60;1.00;;;;;;4976490;28;20179;-84
2022/11/26 06:39:52;;;;;;;27.10;13.23;;;5.50;1.00;;;;;;4976057;28;20547;-84
2022/11/26 06:42:18;;;;;;;23.83;11.90;;;5.50;1.00;;;;;;4977426;28;20657;-84
2022/11/26 06:44:45;;;;;;;24.17;13.02;;;5.50;1.00;;;;;;4977561;28;20184;-84
2022/11/26 06:47:11;;;;;;;35.40;14.00;;;5.50;1.00;;;;;;4972887;28;20176;-83
2022/11/26 06:49:37;;;;;;;25.80;14.60;;;5.50;1.00;;;;;;4966202;28;20181;-84
2022/11/26 06:52:02;;;;;;;30.47;15.93;;;5.60;1.00;;;;;;4976549;28;20220;-85
2022/11/26 06:54:28;;;;;;;30.10;15.27;;;5.60;1.00;;;;;;4977437;28;20275;-84
2022/11/26 06:56:53;;;;;;;27.47;14.40;;;5.70;1.00;;;;;;4976521;28;20273;-86
2022/11/26 06:59:19;;;;;;;30.10;13.30;;;5.80;1.00;;;;;;4977590;28;20749;-85
2022/11/26 07:01:45;;;;;;;24.15;14.30;;;5.80;1.00;;;;;;4977559;28;20192;-84
2022/11/26 07:04:11;;;;;;;26.63;12.67;;;5.90;1.00;;;;;;4969676;28;20666;-84
2022/11/26 07:06:37;;;;;;;25.13;14.30;;;6.00;1.00;;;;;;4978215;28;20680;-85
2022/11/26 07:09:05;;;;;;;30.07;13.40;;;6.00;1.00;;;;;;4974839;28;20271;-84
2022/11/26 07:11:32;;;;;;;24.10;12.23;;;6.10;1.00;;;;;;4978462;28;20797;-84
2022/11/26 07:13:58;;;;;;;20.42;11.73;;;6.20;1.00;;;;;;4975005;28;20416;-84
2022/11/26 07:16:23;;;;;;;25.77;11.90;;;6.20;1.00;;;;;;4964246;28;20219;-84
2022/11/26 07:18:54;;;;;;;20.97;11.80;;;6.20;1.00;;;;;;4975193;28;20561;-85
2022/11/26 07:21:21;;;;;;;24.45;11.95;;;6.30;1.00;;;;;;4962737;28;20236;-84
2022/11/26 07:23:47;;;;;;;20.52;11.88;;;6.30;1.00;;;;;;4976025;28;20188;-84
2022/11/26 07:26:14;;;;;;;23.80;12.55;;;6.40;1.00;;;;;;4975449;28;20212;-84
2022/11/26 07:28:40;;;;;;;24.17;11.63;;;6.60;1.00;;;;;;4974677;28;20587;-84
2022/11/26 07:31:08;;;;;;;29.77;12.65;;;6.70;1.00;;;;;;4969490;28;20188;-84
2022/11/26 07:33:34;;;;;;;21.27;11.55;;;6.80;1.00;;;;;;4975291;28;20204;-85
2022/11/26 07:36:01;;;;;;;32.87;12.40;;;7.00;1.00;;;;;;4972848;28;20251;-84
2022/11/26 07:38:28;;;;;;;21.52;11.48;;;7.10;1.00;;;;;;4960913;28;20185;-85
2022/11/26 07:40:54;;;;;;;29.17;13.18;;;7.10;1.00;;;;;;4973910;28;20239;-84
2022/11/26 07:43:20;;;;;;;23.95;11.02;;;7.30;1.00;;;;;;4974741;28;20188;-85
2022/11/26 07:45:45;;;;;;;25.40;12.23;;;7.40;1.00;;;;;;4975869;28;20227;-84
2022/11/26 07:48:11;;;;;;;17.53;10.67;;;7.60;1.00;;;;;;4976074;28;20181;-85
2022/11/26 07:50:36;;;;;;;26.13;14.43;;;7.80;99.90;;;;;;4976225;28;20172;-85
2022/11/26 07:53:02;;;;;;;23.37;11.73;;;7.90;99.90;;;;;;4977237;28;20268;-83
2022/11/26 07:55:27;;;;;;;17.73;10.90;;;8.00;99.90;;;;;;4971195;28;20255;-84
2022/11/26 07:57:53;;;;;;;34.03;12.93;;;8.10;99.90;;;;;;4975532;28;20200;-84
2022/11/26 08:00:19;;;;;;;26.60;12.70;;;8.20;99.90;;;;;;4969492;28;20180;-85
2022/11/26 08:02:44;;;;;;;20.80;11.23;;;8.30;99.90;;;;;;4973835;28;20288;-82
2022/11/26 08:05:10;;;;;;;22.60;11.93;;;8.40;99.90;;;;;;4973556;28;21182;-85
2022/11/26 08:07:35;;;;;;;19.70;11.30;;;8.60;99.90;;;;;;4974745;28;20850;-85
2022/11/26 08:10:03;;;;;;;18.93;11.17;;;8.70;99.90;;;;;;4962994;28;20195;-85
2022/11/26 08:12:28;;;;;;;16.10;9.50;;;8.90;99.90;;;;;;4965370;28;20227;-87
2022/11/26 08:14:54;;;;;;;18.93;10.80;;;9.30;99.90;;;;;;4978206;28;20467;-86
2022/11/26 08:17:19;;;;;;;14.43;9.97;;;9.90;1.00;;;;;;4961137;29;20646;-85
2022/11/26 08:19:45;;;;;;;20.43;13.83;;;10.30;1.00;;;;;;4974290;28;20197;-86
2022/11/26 08:22:10;;;;;;;21.10;11.70;;;10.80;99.90;;;;;;4979389;28;20188;-85
2022/11/26 08:24:36;;;;;;;14.77;9.63;;;11.30;99.90;;;;;;4978533;28;20701;-86
2022/11/26 08:27:35;;;;;;;18.80;9.00;;;11.80;99.90;;;;;;5065508;28;21103;-84
2022/11/26 08:30:01;;;;;;;10.63;7.90;;;12.20;54.20;;;;;;5073237;28;20443;-82
2022/11/26 08:32:27;;;;;;;14.50;7.40;;;12.50;99.90;;;;;;5072770;28;20189;-83
2022/11/26 08:34:52;;;;;;;10.97;7.13;;;12.90;99.90;;;;;;5069728;28;20462;-83
2022/11/26 08:37:18;;;;;;;13.40;7.30;;;13.20;1.00;;;;;;5065319;28;20224;-83
2022/11/26 08:39:43;;;;;;;9.90;6.37;;;13.50;99.90;;;;;;5090089;28;20179;-84
2022/11/26 08:42:09;;;;;;;11.47;6.67;;;13.80;1.00;;;;;;5088285;28;20186;-84
2022/11/26 08:44:34;;;;;;;10.83;6.70;;;14.00;1.00;;;;;;5066578;28;20274;-83
2022/11/26 08:47:00;;;;;;;10.47;6.07;;;14.30;99.90;;;;;;5070318;28;20247;-84
2022/11/26 08:49:25;;;;;;;11.70;6.90;;;14.50;99.90;;;;;;5062712;28;20188;-84
2022/11/26 08:51:54;;;;;;;9.00;5.90;;;14.50;37.90;;;;;;5055107;28;20196;-83
2022/11/26 08:54:20;;;;;;;15.47;6.83;;;14.20;1.00;;;;;;5061463;28;20184;-83
2022/11/26 08:56:45;;;;;;;12.43;6.20;;;14.00;1.00;;;;;;5070570;28;20472;-83
2022/11/26 08:59:11;;;;;;;14.97;6.53;;;13.80;1.00;;;;;;5076713;28;20229;-83
2022/11/26 09:01:36;;;;;;;12.30;6.27;;;13.60;1.00;;;;;;5069442;28;20183;-84
2022/11/26 09:04:03;;;;;;;13.63;5.97;;;13.50;1.00;;;;;;5072484;28;20186;-85
2022/11/26 09:06:30;;;;;;;16.97;7.40;;;13.50;1.00;;;;;;5065594;28;20216;-83
2022/11/26 09:09:12;;;;;;;21.60;6.67;;;13.40;1.00;;;;;;5064028;28;20794;-84
2022/11/26 09:11:53;;;;;;;12.30;6.60;;;13.30;1.00;;;;;;5072296;28;20445;-83
2022/11/26 09:14:21;;;;;;;8.90;4.30;;;13.40;1.00;;;;;;5070714;28;20511;-84
2022/11/26 09:16:47;;;;;;;12.17;5.07;;;13.40;1.00;;;;;;5074393;28;20469;-86
2022/11/26 09:19:13;;;;;;;14.00;5.77;;;13.40;1.00;;;;;;5073925;28;20920;-85
2022/11/26 09:21:39;;;;;;;12.17;5.53;;;13.50;1.00;;;;;;5076683;28;20193;-84
2022/11/26 09:24:05;;;;;;;13.33;5.53;;;13.50;1.00;;;;;;5071168;28;20446;-83
2022/11/26 09:26:31;;;;;;;11.97;5.40;;;13.60;1.00;;;;;;5070282;28;20262;-84
2022/11/26 09:28:57;;;;;;;13.37;5.23;;;13.70;1.00;;;;;;5073440;28;20626;-83
2022/11/26 09:31:23;;;;;;;9.47;4.43;;;13.70;1.00;;;;;;5074946;28;20409;-82
2022/11/26 09:33:48;;;;;;;10.37;4.83;;;13.80;1.00;;;;;;5076225;28;20429;-85
2022/11/26 09:36:16;;;;;;;17.50;5.90;;;13.80;1.00;;;;;;5074329;28;20208;-84
2022/11/26 09:38:42;;;;;;;12.87;7.80;;;13.80;1.00;;;;;;5060762;28;20265;-84
2022/11/26 09:41:32;;;;;;;16.63;7.60;;;13.80;1.00;;;;;;5062183;28;20430;-84
2022/11/26 09:44:06;;;;;;;15.70;8.80;;;13.80;1.00;;;;;;5046210;28;20199;-85
2022/11/26 09:46:46;;;;;;;10.40;5.60;;;13.70;1.00;;;;;;5063073;28;20887;-84
2022/11/26 09:49:14;;;;;;;11.97;6.00;;;13.60;1.00;;;;;;5050131;28;20439;-84
2022/11/26 09:51:43;;;;;;;11.63;4.90;;;13.50;1.00;;;;;;5066192;28;20461;-84
2022/11/26 09:54:16;;;;;;;14.43;5.53;;;13.50;1.00;;;;;;5063473;28;20414;-83
2022/11/26 09:56:42;;;;;;;15.30;6.10;;;13.50;1.00;;;;;;5061752;28;20524;-83
2022/11/26 09:59:12;;;;;;;10.70;4.40;;;13.50;1.00;;;;;;5049055;28;20470;-82
2022/11/26 10:01:40;;;;;;;17.83;7.83;;;13.60;1.00;;;;;;5046619;28;20543;-83
2022/11/26 10:04:07;;;;;;;15.50;6.70;;;13.60;1.00;;;;;;5058806;28;20462;-83
2022/11/26 10:07:07;;;;;;;21.30;8.37;;;13.70;1.00;;;;;;5057114;28;20481;-83
2022/11/26 10:09:50;;;;;;;18.60;7.47;;;13.70;1.00;;;;;;5053253;28;20439;-83
2022/11/26 10:12:46;;;;;;;11.33;5.37;;;13.70;1.00;;;;;;5035098;28;20508;-83
2022/11/26 10:15:37;;;;;;;17.27;5.40;;;13.60;1.00;;;;;;5047080;28;20883;-83
2022/11/26 10:18:38;;;;;;;13.10;6.60;;;13.60;7.10;;;;;;5050317;28;20435;-82
2022/11/26 10:21:16;;;;;;;9.83;5.87;;;13.50;28.80;;;;;;5052644;28;20413;-83
2022/11/26 10:23:56;;;;;;;10.40;4.30;;;13.50;69.90;;;;;;5052623;28;20401;-82
2022/11/26 10:26:36;;;;;;;14.70;8.20;;;13.40;99.90;;;;;;5046979;28;20476;-82
2022/11/26 10:29:27;;;;;;;16.00;5.67;;;13.40;99.90;;;;;;5049170;28;20433;-83
2022/11/26 10:32:18;;;;;;;12.03;4.93;;;13.50;99.90;;;;;;5051429;28;20441;-83
2022/11/26 10:34:53;;;;;;;13.40;7.53;;;13.50;99.90;;;;;;5032101;28;20446;-82
2022/11/26 10:37:27;;;;;;;12.63;8.50;;;13.50;99.90;;;;;;5052469;28;20431;-83
2022/11/26 10:40:10;;;;;;;14.60;6.50;;;13.60;99.90;;;;;;5047244;28;20468;-83
2022/11/26 10:42:48;;;;;;;13.83;5.83;;;13.60;99.90;;;;;;5053164;28;20543;-82
2022/11/26 10:45:22;;;;;;;14.80;6.03;;;13.60;99.90;;;;;;5051759;28;21013;-83
2022/11/26 10:47:56;;;;;;;21.90;6.97;;;13.70;99.90;;;;;;5053355;28;20519;-83
2022/11/26 10:50:32;;;;;;;16.10;5.93;;;13.80;99.90;;;;;;5044241;28;20830;-82
2022/11/26 10:53:09;;;;;;;16.67;7.07;;;13.90;99.90;;;;;;5051963;28;20442;-82
2022/11/26 10:55:48;;;;;;;22.10;6.73;;;14.00;99.90;;;;;;5050871;28;20849;-83
2022/11/26 10:58:21;;;;;;;22.40;10.67;;;14.00;99.90;;;;;;5034644;28;20513;-82
2022/11/26 11:00:47;;;;;;;15.90;5.77;;;14.10;99.90;;;;;;5053746;28;20504;-82
2022/11/26 11:03:22;;;;;;;12.93;5.10;;;14.10;99.90;;;;;;5060471;28;20423;-83
2022/11/26 11:05:48;;;;;;;13.00;4.90;;;14.10;99.90;;;;;;5051351;28;20299;-83
2022/11/26 11:08:32;;;;;;;23.43;4.87;;;14.10;99.90;;;;;;5040875;28;20460;-83
2022/11/26 11:11:09;;;;;;;15.33;4.80;;;14.10;99.90;;;;;;5059090;28;20207;-83
2022/11/26 11:13:42;;;;;;;20.30;4.70;;;14.20;99.90;;;;;;5057900;28;20432;-83
2022/11/26 11:16:19;;;;;;;15.70;4.10;;;14.30;99.90;;;;;;5058034;28;20455;-83
2022/11/26 11:18:52;;;;;;;12.37;3.80;;;14.50;99.90;;;;;;5051434;28;20883;-81
2022/11/26 11:21:19;;;;;;;12.40;3.30;;;14.60;99.90;;;;;;5032394;28;20439;-82
2022/11/26 11:23:45;;;;;;;16.33;3.80;;;14.70;99.90;;;;;;5051508;28;20487;-82
2022/11/26 11:26:21;;;;;;;14.30;3.10;;;14.70;99.90;;;;;;5052506;28;20472;-82
2022/11/26 11:28:54;;;;;;;22.03;4.30;;;14.70;99.90;;;;;;5043991;28;20180;-82
2022/11/26 11:31:25;;;;;;;16.20;3.70;;;14.80;99.90;;;;;;5051542;28;20427;-82
2022/11/26 11:34:10;;;;;;;17.63;3.70;;;14.80;91.30;;;;;;5057885;28;20427;-82
2022/11/26 11:36:36;;;;;;;14.20;4.40;;;14.60;59.70;;;;;;5042573;28;20459;-82
2022/11/26 11:39:03;;;;;;;13.57;3.23;;;14.50;54.00;;;;;;5034995;28;20439;-80
2022/11/26 11:41:31;;;;;;;8.63;2.87;;;14.50;83.00;;;;;;5047365;28;20586;-82
2022/11/26 11:44:02;;;;;;;10.30;3.57;;;14.50;74.50;;;;;;5054493;28;20472;-82
2022/11/26 11:47:03;;;;;;;15.47;3.77;;;14.40;66.40;;;;;;5042351;28;20488;-82
2022/11/26 11:49:40;;;;;;;11.97;4.13;;;14.40;59.60;;;;;;5051380;28;20476;-83
2022/11/26 11:52:17;;;;;;;18.87;4.10;;;14.40;43.40;;;;;;5047641;28;20461;-83
2022/11/26 11:54:55;;;;;;;17.80;3.70;;;14.40;41.30;;;;;;5043982;28;20444;-83
2022/11/26 11:57:40;;;;;;;10.40;3.43;;;14.40;34.10;;;;;;5047343;28;20447;-83
2022/11/26 12:00:18;;;;;;;13.33;3.30;;;14.50;29.10;;;;;;5044348;28;20435;-84
2022/11/26 12:03:05;;;;;;;16.60;3.87;;;14.50;18.40;;;;;;5047657;28;20424;-83
2022/11/26 12:06:04;;;;;;;22.90;4.23;;;14.70;1.40;;;;;;5051969;28;20485;-85
2022/11/26 12:08:47;;;;;;;17.43;4.20;;;14.80;1.00;;;;;;5051406;28;20449;-84
2022/11/26 12:11:27;;;;;;;19.13;3.70;;;15.30;1.00;;;;;;5043162;28;20432;-84
2022/11/26 12:13:59;;;;;;;18.47;3.80;;;16.00;1.00;;;;;;5045828;28;20434;-84
2022/11/26 12:16:31;;;;;;;17.40;3.47;;;16.50;1.00;;;;;;5049480;28;20489;-85
2022/11/26 12:19:11;;;;;;;20.43;3.73;;;16.50;1.00;;;;;;5061836;28;20464;-85
2022/11/26 12:21:41;;;;;;;11.30;2.93;;;16.30;1.00;;;;;;5062123;28;20413;-85
2022/11/26 12:24:46;;;;;;;17.80;4.87;;;16.10;1.00;;;;;;5054450;28;20452;-84
2022/11/26 12:27:41;;;;;;;25.10;4.63;;;15.90;1.00;;;;;;5044953;28;20472;-85
2022/11/26 12:30:20;;;;;;;14.00;4.10;;;15.60;1.00;;;;;;5074712;28;20454;-85
2022/11/26 12:32:53;;;;;;;15.93;4.10;;;15.50;1.00;;;;;;5063178;28;20438;-84
2022/11/26 12:35:28;;;;;;;18.90;4.20;;;15.30;1.00;;;;;;5053799;28;20458;-85
2022/11/26 12:38:10;;;;;;;12.70;3.70;;;15.20;1.00;;;;;;5057712;28;20432;-85
2022/11/26 12:40:51;;;;;;;15.53;4.90;;;15.20;1.00;;;;;;5057263;28;20423;-85
2022/11/26 12:43:46;;;;;;;21.23;6.70;;;15.30;1.00;;;;;;5055745;28;20523;-86
2022/11/26 12:46:38;;;;;;;18.87;6.40;;;15.60;1.00;;;;;;5052054;28;20488;-85
2022/11/26 12:49:44;;;;;;;13.50;4.90;;;16.10;1.00;;;;;;5058121;28;20784;-85
2022/11/26 12:52:13;;;;;;;11.07;4.10;;;16.50;1.00;;;;;;5049587;28;20450;-86
2022/11/26 12:55:11;;;;;;;16.73;4.90;;;17.00;1.00;;;;;;5056739;28;20454;-85
2022/11/26 12:58:09;;;;;;;12.03;4.33;;;17.50;99.90;;;;;;5056601;28;20506;-83
2022/11/26 13:00:35;;;;;;;15.77;4.70;;;17.90;99.90;;;;;;5059009;28;20444;-86
2022/11/26 13:03:01;;;;;;;22.93;4.50;;;18.50;99.90;;;;;;5057374;28;20595;-83
2022/11/26 13:05:54;;;;;;;18.33;5.90;;;19.00;99.90;;;;;;5054252;28;20465;-83
2022/11/26 13:08:38;;;;;;;10.93;5.07;;;19.30;99.90;;;;;;5040677;28;20434;-84